sensor_id;sensor_type;location;lat;lon;timestamp;temperature;humidity
16995;DHT22;8614;48.522;9.206;2022-07-17T00:00:54;15.30;99.90
16995;DHT22;8614;48.522;9.206;2022-07-17T00:03:21;15.30;99.90
16995;DHT22;8614;48.522;9.206;2022-07-17T00:05:47;15.30;99.90
16995;DHT22;8614;48.522;9.206;2022-07-17T00:08:14;15.20;99.90
16995;DHT22;8614;48.522;9.206;2022-07-17T00:10:43;15.20;99.90
16995;DHT22;8614;48.522;9.206;2022-07-17T00:13:10;15.20;99.90
16995;DHT22;8614;48.522;9.206;2022-07-17T00:15:38;15.10;99.90
16995;DHT22;8614;48.522;9.206;2022-07-17T00:18:05;15.10;99.90
16995;DHT22;8614;48.522;9.206;2022-07-17T00:20:34;15.10;99.90
16995;DHT22;8614;48.522;9.206;2022-07-17T00:23:01;15.10;99.90
16995;DHT22;8614;48.522;9.206;2022-07-17T00:25:28;15.00;99.90
16995;DHT22;8614;48.522;9.206;2022-07-17T00:27:55;15.00;99.90
16995;DHT22;8614;48.522;9.206;2022-07-17T00:30:22;14.90;99.90
16995;DHT22;8614;48.522;9.206;2022-07-17T00:32:50;14.90;99.90
16995;DHT22;8614;48.522;9.206;2022-07-17T00:35:17;14.90;99.90
16995;DHT22;8614;48.522;9.206;2022-07-17T00:37:45;14.90;99.90
16995;DHT22;8614;48.522;9.206;2022-07-17T00:40:16;14.80;99.90
16995;DHT22;8614;48.522;9.206;2022-07-17T00:42:43;14.80;99.90
16995;DHT22;8614;48.522;9.206;2022-07-17T00:45:10;14.80;99.90
16995;DHT22;8614;48.522;9.206;2022-07-17T00:47:51;14.80;99.90
16995;DHT22;8614;48.522;9.206;2022-07-17T00:50:19;14.80;99.90
16995;DHT22;8614;48.522;9.206;2022-07-17T00:52:46;14.70;99.90
16995;DHT22;8614;48.522;9.206;2022-07-17T00:55:13;14.70;99.90
16995;DHT22;8614;48.522;9.206;2022-07-17T00:57:41;14.60;99.90
16995;DHT22;8614;48.522;9.206;2022-07-17T01:00:09;14.60;99.90
16995;DHT22;8614;48.522;9.206;2022-07-17T01:02:36;14.60;99.90
16995;DHT22;8614;48.522;9.206;2022-07-17T01:05:05;14.60;99.90
16995;DHT22;8614;48.522;9.206;2022-07-17T01:07:33;14.50;99.90
16995;DHT22;8614;48.522;9.206;2022-07-17T01:10:00;14.40;99.90
16995;DHT22;8614;48.522;9.206;2022-07-17T01:12:27;14.40;99.90
16995;DHT22;8614;48.522;9.206;2022-07-17T01:14:55;14.40;99.90
16995;DHT22;8614;48.522;9.206;2022-07-17T01:17:24;14.40;99.90
16995;DHT22;8614;48.522;9.206;2022-07-17T01:19:51;14.30;99.90
16995;DHT22;8614;48.522;9.206;2022-07-17T01:22:19;14.30;99.90
16995;DHT22;8614;48.522;9.206;2022-07-17T01:24:46;14.30;99.90
16995;DHT22;8614;48.522;9.206;2022-07-17T01:27:13;14.30;99.90
16995;DHT22;8614;48.522;9.206;2022-07-17T01:29:41;14.20;99.90
16995;DHT22;8614;48.522;9.206;2022-07-17T01:32:08;14.20;99.90
16995;DHT22;8614;48.522;9.206;2022-07-17T01:34:35;14.10;99.90
16995;DHT22;8614;48.522;9.206;2022-07-17T01:37:01;14.10;99.90
16995;DHT22;8614;48.522;9.206;2022-07-17T01:39:29;14.10;99.90
16995;DHT22;8614;48.522;9.206;2022-07-17T01:42:19;14.10;99.90
16995;DHT22;8614;48.522;9.206;2022-07-17T01:44:46;14.10;99.90
16995;DHT22;8614;48.522;9.206;2022-07-17T01:47:13;14.10;99.90
16995;DHT22;8614;48.522;9.206;2022-07-17T01:49:43;14.00;99.90
16995;DHT22;8614;48.522;9.206;2022-07-17T01:52:10;14.00;99.90
16995;DHT22;8614;48.522;9.206;2022-07-17T01:54:39;14.00;99.90
16995;DHT22;8614;48.522;9.206;2022-07-17T01:57:06;14.00;99.90
16995;DHT22;8614;48.522;9.206;2022-07-17T01:59:32;13.90;99.90
16995;DHT22;8614;48.522;9.206;2022-07-17T02:01:59;13.90;99.90
16995;DHT22;8614;48.522;9.206;2022-07-17T02:04:26;13.80;99.90
16995;DHT22;8614;48.522;9.206;2022-07-17T02:06:53;13.80;99.90
16995;DHT22;8614;48.522;9.206;2022-07-17T02:09:20;13.80;99.90
16995;DHT22;8614;48.522;9.206;2022-07-17T02:11:49;13.80;99.90
16995;DHT22;8614;48.522;9.206;2022-07-17T02:14:16;13.80;99.90
16995;DHT22;8614;48.522;9.206;2022-07-17T02:16:43;13.80;99.90
16995;DHT22;8614;48.522;9.206;2022-07-17T02:19:10;13.70;99.90
16995;DHT22;8614;48.522;9.206;2022-07-17T02:21:37;13.60;99.90
16995;DHT22;8614;48.522;9.206;2022-07-17T02:24:04;13.60;99.90
16995;DHT22;8614;48.522;9.206;2022-07-17T02:26:31;13.60;99.90
16995;DHT22;8614;48.522;9.206;2022-07-17T02:28:59;13.60;99.90
16995;DHT22;8614;48.522;9.206;2022-07-17T02:31:26;13.50;99.90
16995;DHT22;8614;48.522;9.206;2022-07-17T02:33:53;13.50;99.90
16995;DHT22;8614;48.522;9.206;2022-07-17T02:36:20;13.50;99.90
16995;DHT22;8614;48.522;9.206;2022-07-17T02:38:47;13.40;99.90
16995;DHT22;8614;48.522;9.206;2022-07-17T02:41:14;13.40;99.90
16995;DHT22;8614;48.522;9.206;2022-07-17T02:43:41;13.40;99.90
16995;DHT22;8614;48.522;9.206;2022-07-17T02:46:10;13.40;99.90
16995;DHT22;8614;48.522;9.206;2022-07-17T02:48:39;13.30;99.90
16995;DHT22;8614;48.522;9.206;2022-07-17T02:51:05;13.30;99.90
16995;DHT22;8614;48.522;9.206;2022-07-17T02:53:32;13.30;99.90
16995;DHT22;8614;48.522;9.206;2022-07-17T02:55:59;13.20;99.90
16995;DHT22;8614;48.522;9.206;2022-07-17T02:58:26;13.20;99.90
16995;DHT22;8614;48.522;9.206;2022-07-17T03:00:53;13.10;99.90
16995;DHT22;8614;48.522;9.206;2022-07-17T03:03:21;13.10;99.90
16995;DHT22;8614;48.522;9.206;2022-07-17T03:05:48;13.10;99.90
16995;DHT22;8614;48.522;9.206;2022-07-17T03:08:15;13.00;99.90
16995;DHT22;8614;48.522;9.206;2022-07-17T03:10:42;13.00;99.90
16995;DHT22;8614;48.522;9.206;2022-07-17T03:13:09;13.00;99.90
16995;DHT22;8614;48.522;9.206;2022-07-17T03:15:38;13.00;99.90
16995;DHT22;8614;48.522;9.206;2022-07-17T03:18:05;12.90;99.90
16995;DHT22;8614;48.522;9.206;2022-07-17T03:20:33;12.90;99.90
16995;DHT22;8614;48.522;9.206;2022-07-17T03:23:00;12.90;99.90
16995;DHT22;8614;48.522;9.206;2022-07-17T03:25:27;12.80;99.90
16995;DHT22;8614;48.522;9.206;2022-07-17T03:27:54;12.80;99.90
16995;DHT22;8614;48.522;9.206;2022-07-17T03:30:21;12.80;99.90
16995;DHT22;8614;48.522;9.206;2022-07-17T03:32:48;12.80;99.90
16995;DHT22;8614;48.522;9.206;2022-07-17T03:35:15;12.80;99.90
16995;DHT22;8614;48.522;9.206;2022-07-17T03:37:45;12.80;99.90
16995;DHT22;8614;48.522;9.206;2022-07-17T03:40:32;12.80;99.90
16995;DHT22;8614;48.522;9.206;2022-07-17T03:43:41;12.80;99.90
16995;DHT22;8614;48.522;9.206;2022-07-17T03:46:20;12.80;99.90
16995;DHT22;8614;48.522;9.206;2022-07-17T03:49:05;12.70;99.90
16995;DHT22;8614;48.522;9.206;2022-07-17T03:52:01;12.70;99.90
16995;DHT22;8614;48.522;9.206;2022-07-17T03:54:29;12.70;99.90
16995;DHT22;8614;48.522;9.206;2022-07-17T03:56:56;12.80;99.90
16995;DHT22;8614;48.522;9.206;2022-07-17T03:59:23;12.80;99.90
16995;DHT22;8614;48.522;9.206;2022-07-17T04:01:50;12.80;99.90
16995;DHT22;8614;48.522;9.206;2022-07-17T04:04:17;12.80;99.90
16995;DHT22;8614;48.522;9.206;2022-07-17T04:06:44;12.80;99.90
16995;DHT22;8614;48.522;9.206;2022-07-17T04:09:10;12.90;99.90
16995;DHT22;8614;48.522;9.206;2022-07-17T04:11:38;12.90;99.90
16995;DHT22;8614;48.522;9.206;2022-07-17T04:14:05;13.00;99.90
16995;DHT22;8614;48.522;9.206;2022-07-17T04:16:32;13.10;99.90
16995;DHT22;8614;48.522;9.206;2022-07-17T04:18:59;13.10;99.90
16995;DHT22;8614;48.522;9.206;2022-07-17T04:21:26;13.10;99.90
16995;DHT22;8614;48.522;9.206;2022-07-17T04:23:52;13.20;99.90
16995;DHT22;8614;48.522;9.206;2022-07-17T04:26:19;13.20;99.90
16995;DHT22;8614;48.522;9.206;2022-07-17T04:28:47;13.20;99.90
16995;DHT22;8614;48.522;9.206;2022-07-17T04:31:14;13.30;99.90
16995;DHT22;8614;48.522;9.206;2022-07-17T04:33:41;13.30;99.90
16995;DHT22;8614;48.522;9.206;2022-07-17T04:36:08;13.30;99.90
16995;DHT22;8614;48.522;9.206;2022-07-17T04:38:35;13.40;99.90
16995;DHT22;8614;48.522;9.206;2022-07-17T04:41:02;13.40;99.90
16995;DHT22;8614;48.522;9.206;2022-07-17T04:43:29;13.50;99.90
16995;DHT22;8614;48.522;9.206;2022-07-17T04:45:57;13.60;99.90
16995;DHT22;8614;48.522;9.206;2022-07-17T04:48:24;13.70;99.90
16995;DHT22;8614;48.522;9.206;2022-07-17T04:50:50;13.70;99.90
16995;DHT22;8614;48.522;9.206;2022-07-17T04:53:17;13.90;99.90
16995;DHT22;8614;48.522;9.206;2022-07-17T04:55:44;14.00;99.90
16995;DHT22;8614;48.522;9.206;2022-07-17T04:58:11;14.10;99.90
16995;DHT22;8614;48.522;9.206;2022-07-17T05:00:38;14.30;99.90
16995;DHT22;8614;48.522;9.206;2022-07-17T05:03:06;14.40;99.90
16995;DHT22;8614;48.522;9.206;2022-07-17T05:05:33;14.50;99.90
16995;DHT22;8614;48.522;9.206;2022-07-17T05:08:00;14.60;99.90
16995;DHT22;8614;48.522;9.206;2022-07-17T05:10:27;14.70;99.90
16995;DHT22;8614;48.522;9.206;2022-07-17T05:12:53;14.90;99.90
16995;DHT22;8614;48.522;9.206;2022-07-17T05:15:20;15.00;99.90
16995;DHT22;8614;48.522;9.206;2022-07-17T05:17:47;15.30;99.90
16995;DHT22;8614;48.522;9.206;2022-07-17T05:20:15;15.40;99.90
16995;DHT22;8614;48.522;9.206;2022-07-17T05:22:45;15.50;99.90
16995;DHT22;8614;48.522;9.206;2022-07-17T05:25:12;15.60;99.90
16995;DHT22;8614;48.522;9.206;2022-07-17T05:27:39;15.80;99.90
16995;DHT22;8614;48.522;9.206;2022-07-17T05:30:06;16.00;99.90
16995;DHT22;8614;48.522;9.206;2022-07-17T05:32:33;16.20;99.90
16995;DHT22;8614;48.522;9.206;2022-07-17T05:35:00;16.30;99.90
16995;DHT22;8614;48.522;9.206;2022-07-17T05:37:28;16.40;99.90
16995;DHT22;8614;48.522;9.206;2022-07-17T05:39:55;16.50;99.90
16995;DHT22;8614;48.522;9.206;2022-07-17T05:42:22;16.60;99.90
16995;DHT22;8614;48.522;9.206;2022-07-17T05:44:48;16.70;99.90
16995;DHT22;8614;48.522;9.206;2022-07-17T05:47:15;16.90;99.90
16995;DHT22;8614;48.522;9.206;2022-07-17T05:49:42;17.30;99.90
16995;DHT22;8614;48.522;9.206;2022-07-17T05:52:09;17.60;99.90
16995;DHT22;8614;48.522;9.206;2022-07-17T05:54:37;18.30;99.90
16995;DHT22;8614;48.522;9.206;2022-07-17T05:57:04;19.00;99.90
16995;DHT22;8614;48.522;9.206;2022-07-17T05:59:30;19.80;99.90
16995;DHT22;8614;48.522;9.206;2022-07-17T06:01:57;20.50;99.90
16995;DHT22;8614;48.522;9.206;2022-07-17T06:04:24;21.00;99.90
16995;DHT22;8614;48.522;9.206;2022-07-17T06:06:51;21.30;99.90
16995;DHT22;8614;48.522;9.206;2022-07-17T06:09:18;21.70;99.90
16995;DHT22;8614;48.522;9.206;2022-07-17T06:11:46;21.80;99.90
16995;DHT22;8614;48.522;9.206;2022-07-17T06:14:13;21.80;99.90
16995;DHT22;8614;48.522;9.206;2022-07-17T06:16:39;22.00;99.90
16995;DHT22;8614;48.522;9.206;2022-07-17T06:19:06;22.10;99.90
16995;DHT22;8614;48.522;9.206;2022-07-17T06:21:33;22.30;99.90
16995;DHT22;8614;48.522;9.206;2022-07-17T06:24:00;22.20;99.90
16995;DHT22;8614;48.522;9.206;2022-07-17T06:26:27;22.00;99.90
16995;DHT22;8614;48.522;9.206;2022-07-17T06:28:55;21.60;99.90
16995;DHT22;8614;48.522;9.206;2022-07-17T06:31:22;21.80;99.90
16995;DHT22;8614;48.522;9.206;2022-07-17T06:34:23;22.10;99.90
16995;DHT22;8614;48.522;9.206;2022-07-17T06:36:51;22.60;99.90
16995;DHT22;8614;48.522;9.206;2022-07-17T06:39:28;22.80;99.90
16995;DHT22;8614;48.522;9.206;2022-07-17T06:41:59;22.90;99.90
16995;DHT22;8614;48.522;9.206;2022-07-17T06:44:30;23.10;99.90
16995;DHT22;8614;48.522;9.206;2022-07-17T06:47:05;23.20;99.90
16995;DHT22;8614;48.522;9.206;2022-07-17T06:49:36;23.40;99.90
16995;DHT22;8614;48.522;9.206;2022-07-17T06:52:15;24.00;99.60
16995;DHT22;8614;48.522;9.206;2022-07-17T06:55:03;24.60;99.10
16995;DHT22;8614;48.522;9.206;2022-07-17T06:57:30;25.00;97.30
16995;DHT22;8614;48.522;9.206;2022-07-17T06:59:58;24.70;97.30
16995;DHT22;8614;48.522;9.206;2022-07-17T07:02:30;24.50;97.50
16995;DHT22;8614;48.522;9.206;2022-07-17T07:05:09;24.60;96.90
16995;DHT22;8614;48.522;9.206;2022-07-17T07:08:00;24.80;96.80
16995;DHT22;8614;48.522;9.206;2022-07-17T07:10:51;24.90;96.90
16995;DHT22;8614;48.522;9.206;2022-07-17T07:17:20;25.00;96.40
16995;DHT22;8614;48.522;9.206;2022-07-17T07:20:21;25.30;96.10
16995;DHT22;8614;48.522;9.206;2022-07-17T07:23:11;25.40;95.50
16995;DHT22;8614;48.522;9.206;2022-07-17T07:29:03;25.20;95.30
16995;DHT22;8614;48.522;9.206;2022-07-17T07:32:18;25.40;94.40
16995;DHT22;8614;48.522;9.206;2022-07-17T07:35:24;25.70;94.50
16995;DHT22;8614;48.522;9.206;2022-07-17T07:37:54;25.50;94.30
16995;DHT22;8614;48.522;9.206;2022-07-17T07:40:21;25.60;94.20
16995;DHT22;8614;48.522;9.206;2022-07-17T07:43:15;25.90;94.80
16995;DHT22;8614;48.522;9.206;2022-07-17T07:45:57;25.90;94.00
16995;DHT22;8614;48.522;9.206;2022-07-17T07:48:31;26.10;94.20
16995;DHT22;8614;48.522;9.206;2022-07-17T07:58:06;26.00;94.40
16995;DHT22;8614;48.522;9.206;2022-07-17T08:00:42;26.50;95.00
16995;DHT22;8614;48.522;9.206;2022-07-17T08:03:43;26.70;93.80
16995;DHT22;8614;48.522;9.206;2022-07-17T08:06:44;26.60;93.20
16995;DHT22;8614;48.522;9.206;2022-07-17T08:09:11;26.90;93.60
16995;DHT22;8614;48.522;9.206;2022-07-17T08:11:37;27.00;92.20
16995;DHT22;8614;48.522;9.206;2022-07-17T08:14:04;27.10;92.10
16995;DHT22;8614;48.522;9.206;2022-07-17T08:16:31;27.00;92.40
16995;DHT22;8614;48.522;9.206;2022-07-17T08:18:59;27.00;92.70
16995;DHT22;8614;48.522;9.206;2022-07-17T08:21:26;27.20;92.60
16995;DHT22;8614;48.522;9.206;2022-07-17T08:23:53;27.20;91.30
16995;DHT22;8614;48.522;9.206;2022-07-17T08:26:20;27.20;92.10
16995;DHT22;8614;48.522;9.206;2022-07-17T08:28:47;27.30;90.60
16995;DHT22;8614;48.522;9.206;2022-07-17T08:31:14;27.00;91.00
16995;DHT22;8614;48.522;9.206;2022-07-17T08:33:41;26.50;91.30
16995;DHT22;8614;48.522;9.206;2022-07-17T08:36:09;26.90;92.80
16995;DHT22;8614;48.522;9.206;2022-07-17T08:38:35;27.40;90.60
16995;DHT22;8614;48.522;9.206;2022-07-17T08:41:03;27.70;92.00
16995;DHT22;8614;48.522;9.206;2022-07-17T08:43:30;28.20;92.00
16995;DHT22;8614;48.522;9.206;2022-07-17T08:45:57;28.10;90.50
16995;DHT22;8614;48.522;9.206;2022-07-17T08:48:26;28.20;91.40
16995;DHT22;8614;48.522;9.206;2022-07-17T08:50:53;28.50;89.90
16995;DHT22;8614;48.522;9.206;2022-07-17T08:53:22;28.50;89.30
16995;DHT22;8614;48.522;9.206;2022-07-17T08:55:49;28.90;88.10
16995;DHT22;8614;48.522;9.206;2022-07-17T08:58:16;28.80;88.50
16995;DHT22;8614;48.522;9.206;2022-07-17T09:00:43;29.10;88.20
16995;DHT22;8614;48.522;9.206;2022-07-17T09:03:13;29.20;88.40
16995;DHT22;8614;48.522;9.206;2022-07-17T09:05:41;29.20;89.00
16995;DHT22;8614;48.522;9.206;2022-07-17T09:08:14;29.50;89.70
16995;DHT22;8614;48.522;9.206;2022-07-17T09:10:45;29.50;84.20
16995;DHT22;8614;48.522;9.206;2022-07-17T09:13:18;29.20;83.50
16995;DHT22;8614;48.522;9.206;2022-07-17T09:15:46;28.80;86.00
16995;DHT22;8614;48.522;9.206;2022-07-17T09:18:13;29.10;84.40
16995;DHT22;8614;48.522;9.206;2022-07-17T09:20:44;29.00;85.10
16995;DHT22;8614;48.522;9.206;2022-07-17T09:23:11;29.40;83.70
16995;DHT22;8614;48.522;9.206;2022-07-17T09:25:41;29.60;83.40
16995;DHT22;8614;48.522;9.206;2022-07-17T09:28:11;30.00;81.40
16995;DHT22;8614;48.522;9.206;2022-07-17T09:30:41;29.40;78.10
16995;DHT22;8614;48.522;9.206;2022-07-17T09:33:13;29.30;80.90
16995;DHT22;8614;48.522;9.206;2022-07-17T09:35:51;29.60;80.20
16995;DHT22;8614;48.522;9.206;2022-07-17T09:38:28;29.30;81.60
16995;DHT22;8614;48.522;9.206;2022-07-17T09:41:06;29.40;79.70
16995;DHT22;8614;48.522;9.206;2022-07-17T09:43:44;29.70;79.90
16995;DHT22;8614;48.522;9.206;2022-07-17T09:46:13;29.30;79.00
16995;DHT22;8614;48.522;9.206;2022-07-17T09:48:43;29.30;78.40
16995;DHT22;8614;48.522;9.206;2022-07-17T09:51:23;28.90;79.50
16995;DHT22;8614;48.522;9.206;2022-07-17T09:53:52;29.00;80.40
16995;DHT22;8614;48.522;9.206;2022-07-17T09:56:20;29.30;76.70
16995;DHT22;8614;48.522;9.206;2022-07-17T09:58:50;29.40;78.80
16995;DHT22;8614;48.522;9.206;2022-07-17T10:01:18;29.30;78.40
16995;DHT22;8614;48.522;9.206;2022-07-17T10:03:45;29.50;78.40
16995;DHT22;8614;48.522;9.206;2022-07-17T10:06:14;29.50;78.70
16995;DHT22;8614;48.522;9.206;2022-07-17T10:08:41;30.00;78.50
16995;DHT22;8614;48.522;9.206;2022-07-17T10:11:09;30.10;76.20
16995;DHT22;8614;48.522;9.206;2022-07-17T10:13:39;30.40;78.10
16995;DHT22;8614;48.522;9.206;2022-07-17T10:16:08;30.10;77.70
16995;DHT22;8614;48.522;9.206;2022-07-17T10:18:37;30.20;76.80
16995;DHT22;8614;48.522;9.206;2022-07-17T10:21:13;29.80;76.30
16995;DHT22;8614;48.522;9.206;2022-07-17T10:23:41;29.90;77.20
16995;DHT22;8614;48.522;9.206;2022-07-17T10:26:09;30.00;76.40
16995;DHT22;8614;48.522;9.206;2022-07-17T10:28:43;29.90;75.70
16995;DHT22;8614;48.522;9.206;2022-07-17T10:31:22;29.30;76.20
16995;DHT22;8614;48.522;9.206;2022-07-17T10:33:57;29.40;76.70
16995;DHT22;8614;48.522;9.206;2022-07-17T10:36:38;29.10;75.30
16995;DHT22;8614;48.522;9.206;2022-07-17T10:39:13;29.00;78.30
16995;DHT22;8614;48.522;9.206;2022-07-17T10:41:40;29.10;77.20
16995;DHT22;8614;48.522;9.206;2022-07-17T10:44:08;29.20;76.90
16995;DHT22;8614;48.522;9.206;2022-07-17T10:46:36;29.00;76.70
16995;DHT22;8614;48.522;9.206;2022-07-17T10:49:03;29.10;76.90
16995;DHT22;8614;48.522;9.206;2022-07-17T10:51:31;29.10;77.40
16995;DHT22;8614;48.522;9.206;2022-07-17T10:54:00;29.10;76.80
16995;DHT22;8614;48.522;9.206;2022-07-17T10:56:27;29.00;76.40
16995;DHT22;8614;48.522;9.206;2022-07-17T10:59:02;28.80;77.60
16995;DHT22;8614;48.522;9.206;2022-07-17T11:01:29;28.30;77.00
16995;DHT22;8614;48.522;9.206;2022-07-17T11:03:59;28.10;79.00
16995;DHT22;8614;48.522;9.206;2022-07-17T11:06:29;28.00;77.60
16995;DHT22;8614;48.522;9.206;2022-07-17T11:08:58;27.90;75.10
16995;DHT22;8614;48.522;9.206;2022-07-17T11:11:36;28.10;76.20
16995;DHT22;8614;48.522;9.206;2022-07-17T11:14:10;28.00;76.80
16995;DHT22;8614;48.522;9.206;2022-07-17T11:16:42;27.80;75.30
16995;DHT22;8614;48.522;9.206;2022-07-17T11:19:12;27.80;75.60
16995;DHT22;8614;48.522;9.206;2022-07-17T11:21:50;27.90;75.40
16995;DHT22;8614;48.522;9.206;2022-07-17T11:24:17;27.50;75.40
16995;DHT22;8614;48.522;9.206;2022-07-17T11:26:44;27.50;77.80
16995;DHT22;8614;48.522;9.206;2022-07-17T11:29:11;27.50;75.90
16995;DHT22;8614;48.522;9.206;2022-07-17T11:31:40;27.40;74.40
16995;DHT22;8614;48.522;9.206;2022-07-17T11:34:08;27.50;74.80
16995;DHT22;8614;48.522;9.206;2022-07-17T11:36:40;27.70;76.80
16995;DHT22;8614;48.522;9.206;2022-07-17T11:39:08;28.00;74.60
16995;DHT22;8614;48.522;9.206;2022-07-17T11:41:37;28.00;74.00
16995;DHT22;8614;48.522;9.206;2022-07-17T11:44:06;27.90;73.50
16995;DHT22;8614;48.522;9.206;2022-07-17T11:46:35;27.90;74.20
16995;DHT22;8614;48.522;9.206;2022-07-17T11:49:03;28.00;73.20
16995;DHT22;8614;48.522;9.206;2022-07-17T11:51:34;27.90;71.10
16995;DHT22;8614;48.522;9.206;2022-07-17T11:54:07;28.00;72.20
16995;DHT22;8614;48.522;9.206;2022-07-17T11:56:35;27.80;70.20
16995;DHT22;8614;48.522;9.206;2022-07-17T11:59:02;27.80;71.10
16995;DHT22;8614;48.522;9.206;2022-07-17T12:01:37;27.60;70.70
16995;DHT22;8614;48.522;9.206;2022-07-17T12:04:04;27.60;72.70
16995;DHT22;8614;48.522;9.206;2022-07-17T12:06:33;27.90;73.10
16995;DHT22;8614;48.522;9.206;2022-07-17T12:09:00;28.00;71.80
16995;DHT22;8614;48.522;9.206;2022-07-17T12:11:28;27.90;72.10
16995;DHT22;8614;48.522;9.206;2022-07-17T12:14:03;27.70;70.60
16995;DHT22;8614;48.522;9.206;2022-07-17T12:16:31;27.60;71.10
16995;DHT22;8614;48.522;9.206;2022-07-17T12:19:04;27.40;70.50
16995;DHT22;8614;48.522;9.206;2022-07-17T12:21:46;27.70;71.20
16995;DHT22;8614;48.522;9.206;2022-07-17T12:24:19;27.60;70.20
16995;DHT22;8614;48.522;9.206;2022-07-17T12:26:48;27.60;70.80
16995;DHT22;8614;48.522;9.206;2022-07-17T12:29:16;27.70;72.10
16995;DHT22;8614;48.522;9.206;2022-07-17T12:31:43;27.60;72.00
16995;DHT22;8614;48.522;9.206;2022-07-17T12:34:10;27.70;71.90
16995;DHT22;8614;48.522;9.206;2022-07-17T12:36:37;27.70;72.30
16995;DHT22;8614;48.522;9.206;2022-07-17T12:39:03;27.80;70.50
16995;DHT22;8614;48.522;9.206;2022-07-17T12:41:31;27.70;71.90
16995;DHT22;8614;48.522;9.206;2022-07-17T12:43:59;27.80;71.50
16995;DHT22;8614;48.522;9.206;2022-07-17T12:46:26;27.80;71.60
16995;DHT22;8614;48.522;9.206;2022-07-17T12:48:53;27.90;70.20
16995;DHT22;8614;48.522;9.206;2022-07-17T12:51:20;27.90;70.60
16995;DHT22;8614;48.522;9.206;2022-07-17T12:53:46;27.70;68.20
16995;DHT22;8614;48.522;9.206;2022-07-17T12:56:13;27.50;69.40
16995;DHT22;8614;48.522;9.206;2022-07-17T12:58:40;27.50;70.80
16995;DHT22;8614;48.522;9.206;2022-07-17T13:01:08;27.50;69.80
16995;DHT22;8614;48.522;9.206;2022-07-17T13:03:36;27.40;69.00
16995;DHT22;8614;48.522;9.206;2022-07-17T13:06:03;27.40;70.60
16995;DHT22;8614;48.522;9.206;2022-07-17T13:08:30;27.40;68.40
16995;DHT22;8614;48.522;9.206;2022-07-17T13:10:57;27.40;69.30
16995;DHT22;8614;48.522;9.206;2022-07-17T13:13:24;27.40;70.20
16995;DHT22;8614;48.522;9.206;2022-07-17T13:15:51;27.60;69.60
16995;DHT22;8614;48.522;9.206;2022-07-17T13:18:19;27.60;69.70
16995;DHT22;8614;48.522;9.206;2022-07-17T13:20:46;27.60;67.60
16995;DHT22;8614;48.522;9.206;2022-07-17T13:23:13;27.50;68.90
16995;DHT22;8614;48.522;9.206;2022-07-17T13:25:41;27.40;67.30
16995;DHT22;8614;48.522;9.206;2022-07-17T13:28:09;27.50;68.50
16995;DHT22;8614;48.522;9.206;2022-07-17T13:30:36;27.40;67.60
16995;DHT22;8614;48.522;9.206;2022-07-17T13:33:04;27.50;68.60
16995;DHT22;8614;48.522;9.206;2022-07-17T13:35:32;27.50;68.20
16995;DHT22;8614;48.522;9.206;2022-07-17T13:37:59;27.40;66.70
16995;DHT22;8614;48.522;9.206;2022-07-17T13:40:27;27.40;64.90
16995;DHT22;8614;48.522;9.206;2022-07-17T13:42:54;27.30;65.60
16995;DHT22;8614;48.522;9.206;2022-07-17T13:45:21;27.30;65.70
16995;DHT22;8614;48.522;9.206;2022-07-17T13:47:48;27.30;63.40
16995;DHT22;8614;48.522;9.206;2022-07-17T13:50:16;27.30;63.00
16995;DHT22;8614;48.522;9.206;2022-07-17T13:52:44;27.40;64.00
16995;DHT22;8614;48.522;9.206;2022-07-17T13:55:12;27.40;62.20
16995;DHT22;8614;48.522;9.206;2022-07-17T13:57:39;27.40;61.60
16995;DHT22;8614;48.522;9.206;2022-07-17T14:00:07;27.40;62.20
16995;DHT22;8614;48.522;9.206;2022-07-17T14:02:36;27.40;63.20
16995;DHT22;8614;48.522;9.206;2022-07-17T14:05:04;27.50;61.50
16995;DHT22;8614;48.522;9.206;2022-07-17T14:07:31;27.60;62.90
16995;DHT22;8614;48.522;9.206;2022-07-17T14:10:00;27.60;63.00
16995;DHT22;8614;48.522;9.206;2022-07-17T14:12:27;27.70;64.40
16995;DHT22;8614;48.522;9.206;2022-07-17T14:14:53;27.70;63.00
16995;DHT22;8614;48.522;9.206;2022-07-17T14:17:20;27.70;63.70
16995;DHT22;8614;48.522;9.206;2022-07-17T14:19:47;27.80;61.00
16995;DHT22;8614;48.522;9.206;2022-07-17T14:22:14;27.70;60.40
16995;DHT22;8614;48.522;9.206;2022-07-17T14:24:41;27.70;59.80
16995;DHT22;8614;48.522;9.206;2022-07-17T14:27:09;27.70;61.60
16995;DHT22;8614;48.522;9.206;2022-07-17T14:29:36;27.80;60.50
16995;DHT22;8614;48.522;9.206;2022-07-17T14:32:03;27.70;60.20
16995;DHT22;8614;48.522;9.206;2022-07-17T14:34:30;27.70;59.40
16995;DHT22;8614;48.522;9.206;2022-07-17T14:36:57;27.70;60.70
16995;DHT22;8614;48.522;9.206;2022-07-17T14:39:24;27.60;60.90
16995;DHT22;8614;48.522;9.206;2022-07-17T14:41:53;27.60;59.80
16995;DHT22;8614;48.522;9.206;2022-07-17T14:44:24;27.70;59.90
16995;DHT22;8614;48.522;9.206;2022-07-17T14:46:51;27.60;59.40
16995;DHT22;8614;48.522;9.206;2022-07-17T14:49:17;27.60;59.60
16995;DHT22;8614;48.522;9.206;2022-07-17T14:51:44;27.70;60.80
16995;DHT22;8614;48.522;9.206;2022-07-17T14:54:11;27.60;59.70
16995;DHT22;8614;48.522;9.206;2022-07-17T14:56:38;27.60;62.10
16995;DHT22;8614;48.522;9.206;2022-07-17T14:59:04;27.60;63.50
16995;DHT22;8614;48.522;9.206;2022-07-17T15:01:33;27.60;65.90
16995;DHT22;8614;48.522;9.206;2022-07-17T15:03:59;27.50;64.20
16995;DHT22;8614;48.522;9.206;2022-07-17T15:06:26;27.60;65.50
16995;DHT22;8614;48.522;9.206;2022-07-17T15:08:53;27.50;64.20
16995;DHT22;8614;48.522;9.206;2022-07-17T15:11:20;27.50;64.70
16995;DHT22;8614;48.522;9.206;2022-07-17T15:13:47;27.50;65.20
16995;DHT22;8614;48.522;9.206;2022-07-17T15:16:26;27.60;66.30
16995;DHT22;8614;48.522;9.206;2022-07-17T15:18:56;27.60;65.20
16995;DHT22;8614;48.522;9.206;2022-07-17T15:21:26;27.60;66.40
16995;DHT22;8614;48.522;9.206;2022-07-17T15:23:53;27.60;61.80
16995;DHT22;8614;48.522;9.206;2022-07-17T15:26:20;27.60;62.00
16995;DHT22;8614;48.522;9.206;2022-07-17T15:29:05;27.60;62.10
16995;DHT22;8614;48.522;9.206;2022-07-17T15:40:36;27.50;62.50
16995;DHT22;8614;48.522;9.206;2022-07-17T15:42:47;27.60;63.10
16995;DHT22;8614;48.522;9.206;2022-07-17T15:46:32;27.60;63.40
16995;DHT22;8614;48.522;9.206;2022-07-17T15:49:25;27.70;62.90
16995;DHT22;8614;48.522;9.206;2022-07-17T15:56:18;27.50;65.50
16995;DHT22;8614;48.522;9.206;2022-07-17T15:58:47;27.40;65.60
16995;DHT22;8614;48.522;9.206;2022-07-17T16:01:14;27.50;66.80
16995;DHT22;8614;48.522;9.206;2022-07-17T16:03:41;27.50;67.60
16995;DHT22;8614;48.522;9.206;2022-07-17T16:06:08;27.50;67.70
16995;DHT22;8614;48.522;9.206;2022-07-17T16:08:35;27.40;67.60
16995;DHT22;8614;48.522;9.206;2022-07-17T16:11:02;27.40;67.90
16995;DHT22;8614;48.522;9.206;2022-07-17T16:13:30;27.40;65.20
16995;DHT22;8614;48.522;9.206;2022-07-17T16:15:57;27.40;66.50
16995;DHT22;8614;48.522;9.206;2022-07-17T16:18:24;27.40;65.20
16995;DHT22;8614;48.522;9.206;2022-07-17T16:20:51;27.30;65.30
16995;DHT22;8614;48.522;9.206;2022-07-17T16:23:18;27.30;64.70
16995;DHT22;8614;48.522;9.206;2022-07-17T16:25:45;27.30;64.00
16995;DHT22;8614;48.522;9.206;2022-07-17T16:28:12;27.30;63.90